Time;durP1;ratioP1;P1;durP2;ratioP2;P2;SDS_P1;SDS_P2;PMS_P1;PMS_P2;Temp;Humidity;BMP_temperature;BMP_pressure;BME280_temperature;BME280_humidity;BME280_pressure;Samples;Min_cycle;Max_cycle;Signal;HPM_P1;HPM_P2
2021/12/11 00:07:46;;;;;;;7.13;2.40;;;3.20;99.90;;;;;;20801986;28;20064;-42
2021/12/11 00:17:47;;;;;;;10.13;2.53;;;3.30;99.90;;;;;;20803985;28;20331;-42
2021/12/11 00:27:52;;;;;;;6.45;2.58;;;3.30;99.90;;;;;;20802460;28;20068;-42
2021/12/11 00:38:08;;;;;;;5.60;2.70;;;3.40;99.90;;;;;;20804658;28;20037;-42
2021/12/11 00:48:14;;;;;;;5.22;2.15;;;3.40;99.90;;;;;;20806915;28;20416;-42
2021/12/11 00:58:22;;;;;;;9.05;2.80;;;3.30;99.90;;;;;;20802895;28;20049;-42
2021/12/11 01:08:32;;;;;;;6.10;2.13;;;3.30;99.90;;;;;;20801979;28;20393;-42
2021/12/11 01:18:35;;;;;;;7.82;2.40;;;3.30;99.90;;;;;;20811293;28;20052;-42
2021/12/11 01:28:37;;;;;;;8.82;2.55;;;3.50;99.90;;;;;;20817354;28;20038;-42
2021/12/11 01:38:40;;;;;;;7.40;2.75;;;3.40;99.90;;;;;;20817518;28;20034;-42
2021/12/11 01:48:50;;;;;;;8.48;2.95;;;3.50;99.90;;;;;;20821965;28;20064;-42
2021/12/11 01:58:59;;;;;;;6.72;2.45;;;3.60;99.90;;;;;;20813479;28;21390;-42
2021/12/11 02:09:11;;;;;;;7.90;2.83;;;3.50;99.90;;;;;;20820290;28;20499;-42
2021/12/11 02:19:29;;;;;;;6.00;2.72;;;3.60;99.90;;;;;;20820502;28;20037;-42
2021/12/11 02:29:36;;;;;;;6.95;3.03;;;3.60;99.90;;;;;;20816797;28;21073;-42
2021/12/11 02:39:49;;;;;;;15.40;3.05;;;3.60;99.90;;;;;;20811450;28;20044;-42
2021/12/11 02:50:04;;;;;;;13.27;3.47;;;3.60;99.90;;;;;;20803662;28;20126;-42
2021/12/11 03:00:17;;;;;;;7.35;3.40;;;3.70;99.90;;;;;;20813910;28;20040;-42
2021/12/11 03:10:23;;;;;;;7.22;3.28;;;3.70;99.90;;;;;;20820616;28;20049;-42
2021/12/11 03:20:26;;;;;;;4.60;2.30;;;3.80;99.90;;;;;;20822004;28;20389;-42
2021/12/11 03:30:31;;;;;;;8.27;2.65;;;3.80;99.90;;;;;;20812294;28;20625;-42
2021/12/11 03:40:33;;;;;;;7.28;3.00;;;3.80;99.90;;;;;;20805732;28;20053;-42
2021/12/11 03:50:35;;;;;;;8.77;3.65;;;3.90;99.90;;;;;;20795385;28;20044;-42
2021/12/11 04:00:48;;;;;;;11.23;4.28;;;3.90;99.90;;;;;;20807333;28;20038;-42
2021/12/11 04:10:49;;;;;;;9.57;3.75;;;3.90;99.90;;;;;;20813852;28;20037;-42
2021/12/11 04:20:51;;;;;;;12.30;4.03;;;4.00;99.90;;;;;;20812715;28;20037;-42
2021/12/11 04:31:02;;;;;;;11.52;4.55;;;4.00;99.90;;;;;;20812686;28;20750;-42
2021/12/11 04:41:05;;;;;;;12.75;4.40;;;4.00;99.90;;;;;;20812561;28;20042;-42
2021/12/11 04:51:21;;;;;;;11.00;4.35;;;3.90;99.90;;;;;;20815432;28;20559;-42
2021/12/11 05:22:16;;;;;;;19.48;5.43;;;4.10;99.90;;;;;;20829941;28;20059;-42
2021/12/11 05:32:21;;;;;;;18.75;5.22;;;4.20;99.90;;;;;;20831584;28;20417;-42
2021/12/11 05:42:22;;;;;;;9.77;3.53;;;4.30;99.90;;;;;;20823571;28;20423;-42
2021/12/11 05:52:24;;;;;;;12.20;4.32;;;4.30;99.90;;;;;;20824426;28;20038;-42
2021/12/11 06:02:28;;;;;;;9.52;4.07;;;4.50;99.90;;;;;;20822432;28;20045;-42
2021/12/11 06:12:30;;;;;;;14.80;2.88;;;4.60;99.90;;;;;;20821584;28;20025;-42
2021/12/11 06:22:33;;;;;;;11.82;3.53;;;4.70;99.90;;;;;;20817220;28;20049;-42
2021/12/11 06:32:35;;;;;;;5.47;2.92;;;4.70;99.90;;;;;;20821567;28;20288;-42
2021/12/11 06:42:36;;;;;;;5.68;1.80;;;4.70;99.90;;;;;;20770740;28;1306086;-42
2021/12/11 06:52:37;;;;;;;5.60;1.05;;;4.90;99.90;;;;;;20820307;28;20037;-42
2021/12/11 07:02:38;;;;;;;8.52;2.65;;;5.10;99.90;;;;;;20821567;28;20036;-42
2021/12/11 07:12:42;;;;;;;16.02;4.47;;;5.20;99.90;;;;;;20821750;28;20049;-42
2021/12/11 07:22:44;;;;;;;10.88;4.13;;;5.00;99.90;;;;;;20820853;28;20037;-42
2021/12/11 07:32:45;;;;;;;13.82;4.80;;;4.50;99.90;;;;;;20813863;28;20045;-42
2021/12/11 07:42:47;;;;;;;10.95;3.78;;;4.20;99.90;;;;;;20813227;28;21393;-42
2021/12/11 07:52:48;;;;;;;8.38;3.22;;;4.00;99.90;;;;;;20813498;28;20037;-42
2021/12/11 08:02:50;;;;;;;8.75;3.35;;;3.80;99.90;;;;;;20805422;28;20401;-42
2021/12/11 08:12:51;;;;;;;13.70;3.45;;;3.70;99.90;;;;;;20807157;28;20041;-42
2021/12/11 08:22:53;;;;;;;11.07;3.85;;;3.70;99.90;;;;;;20774768;28;20489;-42
2021/12/11 08:32:55;;;;;;;11.20;4.43;;;3.70;99.90;;;;;;20804463;28;20120;-42
2021/12/11 08:42:58;;;;;;;12.43;3.63;;;3.70;99.90;;;;;;20808249;28;20042;-42
2021/12/11 08:52:59;;;;;;;10.82;3.72;;;3.70;99.90;;;;;;20811978;28;20038;-42
2021/12/11 09:03:24;;;;;;;9.43;3.30;;;3.70;99.90;;;;;;20820414;28;20044;-42
2021/12/11 09:13:42;;;;;;;10.80;4.18;;;3.70;99.90;;;;;;20794484;28;20112;-42
2021/12/11 09:23:53;;;;;;;12.98;3.75;;;3.70;99.90;;;;;;20807268;28;20053;-42
2021/12/11 09:34:05;;;;;;;14.48;4.45;;;3.90;99.90;;;;;;20820596;28;20124;-42
2021/12/11 09:44:29;;;;;;;10.35;4.22;;;4.30;99.90;;;;;;20837378;28;20052;-42
2021/12/11 09:54:34;;;;;;;16.42;5.30;;;4.40;99.90;;;;;;20846396;28;20077;-43
2021/12/11 10:04:56;;;;;;;13.18;4.80;;;4.70;99.90;;;;;;20844042;28;20043;-42
2021/12/11 10:15:04;;;;;;;17.77;6.18;;;4.90;99.90;;;;;;20842194;28;20030;-42
2021/12/11 10:25:12;;;;;;;13.43;6.63;;;5.20;99.90;;;;;;20839124;28;20029;-42
2021/12/11 10:35:18;;;;;;;10.27;5.88;;;5.60;99.90;;;;;;20832903;28;20033;-42
2021/12/11 10:45:19;;;;;;;21.98;6.90;;;5.90;99.90;;;;;;20825225;28;20049;-42
2021/12/11 10:55:26;;;;;;;14.90;5.47;;;6.20;99.90;;;;;;20822763;28;20056;-42
2021/12/11 11:05:29;;;;;;;17.58;5.75;;;6.70;99.90;;;;;;20824863;28;20520;-42
2021/12/11 11:15:31;;;;;;;18.17;5.53;;;6.50;99.90;;;;;;20826378;28;20044;-42
2021/12/11 11:25:37;;;;;;;11.82;5.18;;;6.50;99.90;;;;;;20827796;28;20052;-42
2021/12/11 11:35:42;;;;;;;11.40;4.78;;;6.50;99.90;;;;;;20826168;28;20048;-43
2021/12/11 11:45:44;;;;;;;9.70;4.22;;;7.00;99.90;;;;;;20813376;28;20053;-42
2021/12/11 11:55:49;;;;;;;7.63;4.18;;;7.90;99.90;;;;;;20830519;28;20483;-43
2021/12/11 12:05:53;;;;;;;8.77;3.60;;;9.30;99.90;;;;;;20829085;28;21388;-43
2021/12/11 12:16:00;;;;;;;8.98;3.00;;;9.80;99.90;;;;;;20828299;28;20037;-42
2021/12/11 12:26:06;;;;;;;10.37;3.93;;;9.80;99.90;;;;;;20828495;28;20044;-43
2021/12/11 12:36:07;;;;;;;6.05;1.98;;;10.00;99.90;;;;;;20826305;28;20029;-43
2021/12/11 12:46:10;;;;;;;5.53;2.22;;;10.20;99.90;;;;;;20820284;28;20053;-43
2021/12/11 12:56:19;;;;;;;8.27;2.90;;;10.30;99.90;;;;;;20815441;28;22336;-43
2021/12/11 13:06:30;;;;;;;19.25;2.55;;;10.90;99.90;;;;;;20813844;28;20055;-43
2021/12/11 13:16:36;;;;;;;6.47;1.90;;;10.20;99.90;;;;;;20825173;28;20522;-43
2021/12/11 13:26:41;;;;;;;5.20;1.65;;;9.30;99.90;;;;;;20836007;28;20033;-43
2021/12/11 13:36:44;;;;;;;2.13;0.80;;;9.10;99.90;;;;;;20837240;28;20056;-43
2021/12/11 13:46:47;;;;;;;1.27;0.50;;;9.10;99.90;;;;;;20832645;28;20037;-43
2021/12/11 13:56:52;;;;;;;5.35;0.93;;;8.80;99.90;;;;;;20821819;28;20525;-43
2021/12/11 14:07:09;;;;;;;4.53;0.85;;;8.60;99.90;;;;;;20823422;28;20051;-43
2021/12/11 14:17:12;;;;;;;2.43;1.00;;;8.60;99.90;;;;;;20821955;28;20436;-43
2021/12/11 14:27:16;;;;;;;8.77;0.80;;;8.40;99.90;;;;;;20826345;28;20819;-43
2021/12/11 14:37:18;;;;;;;2.63;1.20;;;8.10;99.90;;;;;;20842502;28;20037;-43
2021/12/11 14:47:20;;;;;;;5.25;0.98;;;7.90;99.90;;;;;;20817824;28;20560;-43
2021/12/11 14:57:21;;;;;;;3.95;0.93;;;7.70;99.90;;;;;;20842286;28;20044;-44
2021/12/11 15:07:29;;;;;;;4.07;0.98;;;7.50;99.90;;;;;;20848278;28;20121;-43
2021/12/11 15:17:31;;;;;;;2.13;1.02;;;7.30;99.90;;;;;;20836971;28;20044;-43
2021/12/11 15:27:35;;;;;;;7.20;0.93;;;7.10;99.90;;;;;;20855103;28;20045;-43
2021/12/11 15:37:38;;;;;;;3.33;0.77;;;6.90;99.90;;;;;;20851146;28;20497;-43
2021/12/11 15:47:41;;;;;;;3.47;1.13;;;6.80;99.90;;;;;;20844149;28;20041;-44
2021/12/11 15:57:47;;;;;;;2.80;1.15;;;6.60;99.90;;;;;;20846595;28;20116;-43
2021/12/11 16:07:50;;;;;;;6.95;2.03;;;6.40;99.90;;;;;;20848213;28;20543;-43
2021/12/11 16:17:53;;;;;;;4.82;1.33;;;6.30;99.90;;;;;;20847071;28;20084;-43
2021/12/11 16:28:03;;;;;;;3.35;1.13;;;6.20;99.90;;;;;;20810844;28;20068;-43
2021/12/11 16:38:06;;;;;;;4.72;1.50;;;6.10;99.90;;;;;;20842951;28;20198;-43
2021/12/11 16:48:09;;;;;;;4.30;1.55;;;6.00;99.90;;;;;;20844931;28;20045;-43
2021/12/11 16:58:12;;;;;;;5.20;1.90;;;6.00;99.90;;;;;;20864827;28;20128;-43
2021/12/11 17:08:14;;;;;;;5.00;2.22;;;5.90;99.90;;;;;;20867672;28;20059;-44
2021/12/11 17:18:23;;;;;;;11.20;4.43;;;5.90;99.90;;;;;;20868581;28;20047;-44
2021/12/11 17:28:31;;;;;;;6.90;2.55;;;5.80;99.90;;;;;;20868994;28;20044;-43
2021/12/11 17:38:32;;;;;;;8.13;1.73;;;5.80;99.90;;;;;;20862775;28;20059;-45
2021/12/11 17:48:34;;;;;;;12.18;4.28;;;5.80;99.90;;;;;;20861171;28;20397;-44
2021/12/11 17:58:43;;;;;;;10.05;2.58;;;5.70;99.90;;;;;;20860595;28;20056;-44
2021/12/11 18:08:45;;;;;;;6.68;2.53;;;5.70;99.90;;;;;;20855426;28;20040;-44
2021/12/11 18:18:57;;;;;;;10.13;2.63;;;5.60;99.90;;;;;;20849376;28;21602;-44
2021/12/11 18:28:59;;;;;;;4.20;1.63;;;5.70;99.90;;;;;;20814715;28;20044;-45
2021/12/11 18:39:00;;;;;;;4.47;1.80;;;5.70;99.90;;;;;;20846712;28;20051;-44
2021/12/11 18:49:06;;;;;;;5.03;2.20;;;5.60;99.90;;;;;;20843356;28;20063;-45
2021/12/11 18:59:11;;;;;;;9.63;3.50;;;5.60;99.90;;;;;;20844459;28;20045;-44
2021/12/11 19:09:16;;;;;;;6.15;2.28;;;5.60;99.90;;;;;;20848162;28;20405;-45
2021/12/11 19:19:19;;;;;;;7.35;1.95;;;5.50;99.90;;;;;;20847917;28;20326;-45
2021/12/11 19:29:21;;;;;;;6.95;2.55;;;5.50;99.90;;;;;;20853542;28;20064;-45
2021/12/11 19:39:29;;;;;;;5.93;2.28;;;5.50;99.90;;;;;;20851367;28;20047;-45
2021/12/11 19:49:32;;;;;;;8.00;3.58;;;5.40;99.90;;;;;;20824974;28;20059;-45
2021/12/11 19:59:38;;;;;;;19.65;3.50;;;5.40;99.90;;;;;;20837795;28;20496;-45
2021/12/11 20:09:51;;;;;;;7.33;3.57;;;5.40;99.90;;;;;;20843050;28;20030;-45
2021/12/11 20:19:53;;;;;;;7.20;3.72;;;5.40;99.90;;;;;;20842874;28;20041;-45
2021/12/11 20:30:23;;;;;;;11.85;3.47;;;5.40;99.90;;;;;;20838306;28;20041;-44
2021/12/11 20:40:34;;;;;;;11.25;5.03;;;5.20;99.90;;;;;;20826220;28;20053;-44
2021/12/11 20:50:41;;;;;;;11.13;5.13;;;5.20;99.90;;;;;;20829135;28;20228;-44
2021/12/11 21:00:50;;;;;;;10.13;4.53;;;5.20;99.90;;;;;;20826165;28;20048;-45
2021/12/11 21:11:05;;;;;;;15.90;3.78;;;5.30;99.90;;;;;;20827424;28;20317;-45
2021/12/11 21:21:13;;;;;;;16.95;4.18;;;5.30;99.90;;;;;;20825975;28;20088;-44
2021/12/11 21:31:18;;;;;;;16.90;4.82;;;5.30;99.90;;;;;;20827672;28;20033;-44
2021/12/11 21:41:27;;;;;;;11.60;4.18;;;5.40;99.90;;;;;;20841647;28;20041;-44
2021/12/11 21:51:54;;;;;;;13.02;3.65;;;5.40;99.90;;;;;;20849509;28;20041;-45
2021/12/11 22:01:59;;;;;;;6.88;2.85;;;5.40;99.90;;;;;;20843805;28;20057;-44
2021/12/11 22:12:06;;;;;;;11.40;3.50;;;5.40;99.90;;;;;;20843770;28;20033;-44
2021/12/11 22:22:11;;;;;;;7.60;3.15;;;5.50;99.90;;;;;;20843892;28;20044;-45
2021/12/11 22:32:15;;;;;;;11.68;4.72;;;5.40;99.90;;;;;;20818609;28;20032;-44
2021/12/11 22:42:24;;;;;;;15.35;4.95;;;5.50;99.90;;;;;;20813279;28;20128;-44
2021/12/11 22:52:26;;;;;;;9.95;4.43;;;5.50;99.90;;;;;;20798542;28;20490;-44
2021/12/11 23:02:31;;;;;;;10.32;3.78;;;5.50;99.90;;;;;;20815234;28;20489;-44
2021/12/11 23:12:38;;;;;;;15.65;3.75;;;5.60;99.90;;;;;;20809020;28;20485;-44
2021/12/11 23:22:43;;;;;;;7.40;3.22;;;5.60;99.90;;;;;;20810336;28;20033;-44
2021/12/11 23:32:47;;;;;;;8.27;3.15;;;5.70;99.90;;;;;;20804530;28;20026;-44
2021/12/11 23:42:53;;;;;;;16.13;3.58;;;5.70;99.90;;;;;;20798742;28;21202;-44
2021/12/11 23:52:57;;;;;;;10.63;3.27;;;5.80;99.90;;;;;;20784793;28;20036;-44
